METAR - Ísland

Uppfært síðast 17.01.2020 - kl. 17:05

SIGMET síðustu 6 klst.

Engin SIGMET skeyti bárust síðustu 6 klst.

METAR síðustu 3 klst

Flugv.TímiSkeyti
BIAR2020-01-17 17.00METAR BIAR 171700Z 19003KT 150V220 9999 BKN049 M00/M04 Q1001 R01/290095 RMK WIND VADLAHEIDI 28316KT RWY SANDED
BIAR2020-01-17 16.00METAR BIAR 171600Z 23004KT 190V270 9999 -SN SCT040 BKN051 M01/M03 Q1000 R01/290095 RMK WIND VADLAHEIDI 30016KT RWY SANDED
BIAR2020-01-17 15.00METAR BIAR 171500Z VRB02KT 9999 OVC051 M01/M03 Q1000 R01/290095 RMK WIND VADLAHEIDI 28513KT
BIBD2020-01-17 15.41METAR BIBD 171541Z 22008KT 9999 SCT030 M00/M03 Q1002
BIEG2020-01-17 17.00METAR BIEG 171700Z 01009KT 9999 BKN020 OVC034 03/M02 Q0995 R04/790295 RMK SAND ON RWY - GAGNHEIDI /////
BIEG2020-01-17 16.00METAR BIEG 171600Z 36009KT 9999 -RA SCT015 BKN020 OVC035 02/M00 Q0995 R04/790295 RMK SAND ON RWY - GAGNHEIDI /////
BIEG2020-01-17 15.00METAR BIEG 171500Z 35009KT 9999 -DZ SCT010 BKN015 OVC025 02/00 Q0994 R04/790295 RMK SAND ON RWY - GAGNHEIDI /////
BIGR2020-01-17 16.00METAR BIGR 171600Z 29019KT 9999 -RA BKN008 OVC066 02/01 Q1000
BIHN2020-01-17 17.00METAR BIHN 171700Z 32025KT 9999 FEW045 FEW100 03/M04 Q0994 R18/750195 RMK RUNWAY SANDED
BIHN2020-01-17 16.12METAR BIHN 171612Z 32028KT 9999 FEW045 SCT100 03/M04 Q0994 R18/750195 RMK RUNWAY SANDED
BIHN2020-01-17 15.00METAR BIHN 171500Z 32022KT 9999 FEW045 BKN100 03/M03 Q0994 R18/790195 RMK RUNWAY SANDED
BIHU2020-01-17 17.00METAR BIHU 171700Z 34009G21KT 9999 BKN035 OVC060 02/M02 Q0999 R20/090095
BIHU2020-01-17 16.00METAR BIHU 171600Z 10002KT 9999 BKN035 OVC060 00/M02 Q0999 R20/090095
BIHU2020-01-17 15.00METAR BIHU 171500Z 04002KT 9999 OVC035 M00/M02 Q0999 R20/090095
BIIS2020-01-17 17.00METAR BIIS 171700Z 20003KT 9999 FEW025 SCT050 M03/M06 Q1002 R08/720195
BIIS2020-01-17 16.00METAR BIIS 171600Z 20004KT 9999 FEW025 SCT050 M02/M07 Q1002 R08/720195
BIIS2020-01-17 15.00METAR BIIS 171500Z 18005KT 9999 FEW030 FEW050 M02/M07 Q1001 R08/720195
BIIS2020-01-17 14.11METAR BIIS 171411Z 22004KT 9999 FEW030 FEW050 M01/M06 Q1001 R08/720195
BIKF2020-01-17 17.00METAR BIKF 171700Z 28001KT 9999 SCT028CB BKN045 M00/M01 Q1004
BIKF2020-01-17 16.30METAR BIKF 171630Z 31002KT 9999 FEW029CB SCT045 M01/M02 Q1004
BIKF2020-01-17 16.00METAR BIKF 171600Z 26004KT 9999 FEW029CB SCT045 M01/M02 Q1003 R28/920054
BIKF2020-01-17 15.30METAR BIKF 171530Z 26005KT 9999 FEW029CB SCT045 SCT092 M01/M02 Q1003 R28/920054
BIKF2020-01-17 15.00METAR BIKF 171500Z 26017KT 9999 VCSH FEW020CB SCT032CB BKN041 M00/M02 Q1003 R28/920054
BIKF2020-01-17 14.30METAR BIKF 171430Z 26008KT 9999 FEW020CB SCT039 M01/M03 Q1003 R28/920054
BIRK2020-01-17 17.00METAR BIRK 171700Z 30009KT 9999 VCSH FEW010 SCT035 BKN051 00/M02 Q1004 R31/910152
BIRK2020-01-17 16.00METAR BIRK 171600Z VRB03KT 9999 SCT035 M01/M03 Q1004 R19/910146
BIRK2020-01-17 15.00METAR BIRK 171500Z 15004KT 110V170 9999 FEW035 M01/M03 Q1003 R19/910146
BIVM2020-01-17 17.00METAR BIVM 171700Z 32009KT 9999 FEW024 01/M02 Q1003
BIVM2020-01-17 16.00METAR BIVM 171600Z 31017KT 9999 FEW020 02/M03 Q1002 R30/750095 RMK RWY SANDED
BIVM2020-01-17 15.00METAR BIVM 171500Z 31014KT 9999 FEW030 02/M03 Q1002 R30/750095 RMK RWY SANDED
BIVO2020-01-17 15.00METAR BIVO 171500Z VRB08KT 9999 BKN030 03/M01 Q0996 R23/790320

Textaspár eru skrifaðar af vakthafandi veðurfræðingi á Veðurstofu Íslands.




Aðrir tengdir vefir



Þetta vefsvæði byggir á Eplica